Time;durP1;ratioP1;P1;durP2;ratioP2;P2;SDS_P1;SDS_P2;PMS_P1;PMS_P2;Temp;Humidity;BMP_temperature;BMP_pressure;BME280_temperature;BME280_humidity;BME280_pressure;Samples;Min_cycle;Max_cycle;Signal;HPM_P1;HPM_P2
2022/12/31 05:22:40;;;;;;;0.98;0.50;;;;;;;15.92;85.31;100064.13;5089364;28;20747;-67
2022/12/31 05:25:06;;;;;;;0.47;0.43;;;;;;;15.95;84.95;100064.50;5089543;28;20033;-67
2022/12/31 05:27:32;;;;;;;0.73;0.68;;;;;;;15.94;85.38;100076.31;5088918;28;20299;-66
2022/12/31 05:29:58;;;;;;;0.80;0.65;;;;;;;15.96;84.75;100076.09;5088068;28;20086;-67
2022/12/31 05:32:23;;;;;;;0.35;0.35;;;;;;;15.99;84.26;100079.19;5089300;28;20428;-66
2022/12/31 05:34:49;;;;;;;0.68;0.40;;;;;;;15.97;84.52;100078.59;5089678;28;20036;-67
2022/12/31 05:37:14;;;;;;;0.88;0.70;;;;;;;16.02;84.05;100099.41;5087383;28;20040;-67
2022/12/31 05:39:39;;;;;;;1.67;0.85;;;;;;;16.05;83.53;100084.75;5088890;28;20089;-68
2022/12/31 05:42:05;;;;;;;1.15;0.85;;;;;;;16.05;83.89;100098.19;5088931;28;20028;-66
2022/12/31 05:44:30;;;;;;;1.83;0.70;;;;;;;16.07;83.17;100096.09;5073088;28;20389;-66
2022/12/31 05:46:56;;;;;;;0.50;0.50;;;;;;;16.01;83.86;100101.28;5068682;28;20505;-67
2022/12/31 05:49:21;;;;;;;0.85;0.63;;;;;;;16.06;82.93;100099.81;5068411;28;20067;-67
2022/12/31 05:51:46;;;;;;;0.82;0.65;;;;;;;16.10;82.51;100104.53;5068340;28;20032;-67
2022/12/31 05:54:12;;;;;;;2.42;1.02;;;;;;;16.07;82.95;100112.22;5068445;28;20044;-68
2022/12/31 05:56:37;;;;;;;0.98;0.55;;;;;;;15.99;83.38;100106.06;5066968;28;20032;-67
2022/12/31 05:59:03;;;;;;;0.95;0.73;;;;;;;16.01;82.82;100108.50;5067792;28;20507;-67
2022/12/31 06:01:28;;;;;;;1.10;0.70;;;;;;;15.96;82.74;100101.09;5068236;28;20040;-67
2022/12/31 06:03:53;;;;;;;1.25;0.70;;;;;;;15.92;82.95;100105.25;5068079;28;20119;-67
2022/12/31 06:06:19;;;;;;;0.93;0.70;;;;;;;15.90;82.56;100114.53;5067915;28;20036;-66
2022/12/31 06:08:48;;;;;;;0.90;0.75;;;;;;;15.89;82.49;100113.72;5067785;28;20044;-67
2022/12/31 06:11:14;;;;;;;1.20;0.90;;;;;;;15.87;82.86;100106.91;5067952;28;20056;-66
2022/12/31 06:13:39;;;;;;;1.73;0.93;;;;;;;15.90;82.43;100099.25;5067604;28;20043;-67
2022/12/31 06:16:09;;;;;;;2.40;1.58;;;;;;;15.85;82.71;100104.44;5067730;28;20044;-66
2022/12/31 06:18:34;;;;;;;1.10;0.85;;;;;;;15.83;82.53;100108.34;5067413;28;20028;-67
2022/12/31 06:21:02;;;;;;;1.30;1.20;;;;;;;15.80;82.69;100117.66;5067644;28;20033;-66
2022/12/31 06:23:27;;;;;;;2.05;1.35;;;;;;;15.85;82.04;100098.25;5068007;28;20052;-66
2022/12/31 06:25:52;;;;;;;1.23;1.00;;;;;;;15.83;81.92;100103.00;5067817;28;20051;-67
2022/12/31 06:28:18;;;;;;;0.60;0.60;;;;;;;15.91;81.50;100117.03;5067652;28;20040;-65
2022/12/31 06:30:43;;;;;;;3.30;1.25;;;;;;;15.88;81.67;100106.69;5067620;28;20120;-67
2022/12/31 06:33:09;;;;;;;1.23;0.93;;;;;;;15.87;81.36;100118.47;5059239;28;20052;-67
2022/12/31 06:35:34;;;;;;;2.25;0.88;;;;;;;15.82;81.96;100126.34;5054226;28;20116;-67
2022/12/31 06:37:59;;;;;;;0.90;0.73;;;;;;;15.85;81.48;100125.94;5054092;28;20048;-67
2022/12/31 06:40:25;;;;;;;1.23;0.82;;;;;;;15.86;81.19;100124.91;5054405;28;20044;-67
2022/12/31 06:42:52;;;;;;;2.28;1.02;;;;;;;15.85;81.38;100142.03;5054129;28;20029;-66
2022/12/31 06:45:17;;;;;;;1.05;0.95;;;;;;;15.83;81.42;100138.72;5054103;28;20048;-65
2022/12/31 06:47:43;;;;;;;1.10;0.80;;;;;;;15.88;81.00;100141.63;5054051;28;20045;-66
2022/12/31 06:50:08;;;;;;;1.08;0.77;;;;;;;15.83;81.25;100135.22;5054290;28;20037;-66
2022/12/31 06:52:34;;;;;;;1.73;1.00;;;;;;;15.84;81.20;100144.91;5054056;28;20413;-65
2022/12/31 06:54:59;;;;;;;0.88;0.73;;;;;;;15.86;80.91;100130.25;5054161;28;20041;-66
2022/12/31 06:57:25;;;;;;;1.15;0.70;;;;;;;15.84;81.15;100129.63;5053683;28;20033;-67
2022/12/31 06:59:51;;;;;;;1.00;0.90;;;;;;;15.86;80.98;100130.25;5053818;28;20490;-66
2022/12/31 07:02:29;;;;;;;1.98;1.00;;;;;;;15.86;81.17;100132.13;5054010;28;20029;-66
2022/12/31 07:05:06;;;;;;;0.95;0.77;;;;;;;15.90;80.67;100134.16;5054006;28;20041;-67
2022/12/31 07:07:35;;;;;;;1.38;0.93;;;;;;;15.89;80.83;100131.69;5053459;28;20319;-66
2022/12/31 07:10:29;;;;;;;1.33;1.20;;;;;;;15.93;80.41;100132.94;5053537;28;20040;-66
2022/12/31 07:13:31;;;;;;;0.95;0.85;;;;;;;15.87;80.73;100131.91;5053619;28;20064;-66
2022/12/31 07:16:40;;;;;;;2.22;1.25;;;;;;;15.90;80.58;100136.84;5053677;28;20535;-67
2022/12/31 07:19:42;;;;;;;1.08;0.70;;;;;;;15.90;80.75;100139.53;5053930;28;20033;-65
2022/12/31 07:22:14;;;;;;;0.88;0.70;;;;;;;15.85;81.28;100139.38;5053759;28;20562;-65
2022/12/31 07:24:41;;;;;;;2.33;0.80;;;;;;;15.92;80.24;100142.84;5054307;28;20102;-66
2022/12/31 07:27:34;;;;;;;1.43;1.00;;;;;;;15.90;80.51;100154.81;5054205;28;20036;-64
2022/12/31 07:30:06;;;;;;;0.95;0.80;;;;;;;15.98;79.74;100157.31;5053538;28;20037;-66
2022/12/31 07:32:40;;;;;;;2.67;0.90;;;;;;;15.98;80.06;100162.69;5053787;28;20062;-67
2022/12/31 07:35:26;;;;;;;2.60;0.85;;;;;;;15.98;79.57;100176.94;5054110;28;20103;-66
2022/12/31 07:38:23;;;;;;;3.28;0.95;;;;;;;16.07;79.07;100182.06;5052922;28;20529;-66
2022/12/31 07:41:12;;;;;;;11.77;1.30;;;;;;;16.14;78.47;100170.28;5053073;28;20182;-57
2022/12/31 07:43:46;;;;;;;1.65;0.88;;;;;;;16.17;78.44;100179.75;5052729;28;20287;-59
2022/12/31 07:46:27;;;;;;;3.53;1.00;;;;;;;16.23;78.46;100184.28;5052445;28;20029;-61
2022/12/31 07:48:53;;;;;;;1.17;0.88;;;;;;;16.22;77.73;100180.78;5051815;28;20048;-58
2022/12/31 07:51:18;;;;;;;0.93;0.57;;;;;;;16.31;77.11;100189.44;5051442;28;20056;-59
2022/12/31 07:53:44;;;;;;;1.98;1.30;;;;;;;16.31;77.05;100183.25;5052745;28;20094;-61
2022/12/31 07:56:09;;;;;;;1.30;1.10;;;;;;;16.33;77.03;100190.06;5052545;28;20037;-71
2022/12/31 07:59:12;;;;;;;3.20;1.13;;;;;;;16.38;76.47;100187.56;5052452;28;20033;-71
2022/12/31 08:01:40;;;;;;;2.92;1.23;;;;;;;16.43;75.95;100193.13;5052575;28;20044;-71
2022/12/31 08:04:08;;;;;;;9.93;3.13;;;;;;;16.46;76.10;100179.25;5052378;28;20414;-70
2022/12/31 08:06:48;;;;;;;4.53;1.50;;;;;;;16.48;75.18;100190.59;5052410;28;20090;-70
2022/12/31 08:09:26;;;;;;;1.15;0.90;;;;;;;16.57;74.94;100201.16;5052525;28;20033;-71
2022/12/31 08:11:58;;;;;;;1.25;1.00;;;;;;;16.58;74.64;100200.09;5052251;28;20044;-72
2022/12/31 08:14:25;;;;;;;1.17;0.93;;;;;;;16.64;74.04;100220.75;5051008;28;20037;-71
2022/12/31 08:16:50;;;;;;;1.27;0.90;;;;;;;16.58;74.39;100206.31;5052205;28;20032;-71
2022/12/31 08:19:27;;;;;;;0.98;0.68;;;;;;;16.68;73.75;100213.91;5051937;28;20547;-71
2022/12/31 08:22:19;;;;;;;1.67;0.93;;;;;;;16.64;74.44;100218.91;5052103;28;20040;-71
2022/12/31 08:25:04;;;;;;;1.30;0.95;;;;;;;16.67;73.80;100220.31;5052125;28;20486;-72
2022/12/31 08:27:42;;;;;;;1.02;0.70;;;;;;;16.69;73.78;100223.63;5051732;28;20513;-72
2022/12/31 08:30:11;;;;;;;1.88;0.95;;;;;;;16.70;74.14;100219.94;5052063;28;20036;-72
2022/12/31 08:32:45;;;;;;;2.53;0.75;;;;;;;16.79;72.74;100229.41;5051939;28;20029;-71
2022/12/31 08:35:32;;;;;;;1.77;0.70;;;;;;;16.87;72.13;100231.84;5051863;28;20115;-70
2022/12/31 08:38:14;;;;;;;1.23;0.90;;;;;;;16.87;72.46;100218.41;5051623;28;20025;-71
2022/12/31 08:41:22;;;;;;;0.90;0.80;;;;;;;16.95;71.66;100234.31;5051998;28;20067;-71
2022/12/31 08:44:04;;;;;;;1.38;1.10;;;;;;;17.02;70.83;100220.81;5051765;28;20051;-70
2022/12/31 08:46:52;;;;;;;1.30;0.95;;;;;;;17.06;70.80;100222.00;5051857;28;20136;-71
2022/12/31 08:49:18;;;;;;;1.27;0.85;;;;;;;17.17;69.87;100225.91;5020503;28;20049;-70
2022/12/31 08:51:44;;;;;;;2.45;0.70;;;;;;;17.25;68.53;100220.25;5051711;28;20496;-70
2022/12/31 08:54:11;;;;;;;1.17;0.65;;;;;;;17.36;68.25;100225.75;5051697;28;20053;-70
2022/12/31 08:56:50;;;;;;;1.48;0.80;;;;;;;17.35;68.31;100231.38;5051338;28;20035;-70
2022/12/31 08:59:31;;;;;;;2.10;0.80;;;;;;;17.49;67.55;100229.41;5051524;28;20043;-70
2022/12/31 09:02:30;;;;;;;0.80;0.70;;;;;;;17.57;67.10;100243.41;5052930;28;20064;-67
2022/12/31 09:05:15;;;;;;;1.63;1.10;;;;;;;17.72;65.98;100247.69;5071398;28;20093;-68
2022/12/31 09:07:51;;;;;;;1.50;0.90;;;;;;;17.76;65.58;100244.34;5071179;28;20068;-69
2022/12/31 09:10:24;;;;;;;2.25;0.90;;;;;;;17.77;65.90;100231.69;5071378;28;20123;-71
2022/12/31 09:13:01;;;;;;;1.15;0.90;;;;;;;17.78;65.19;100238.72;5071264;28;20397;-68
2022/12/31 09:15:36;;;;;;;0.80;0.80;;;;;;;17.75;65.21;100233.78;5071585;28;20079;-69
2022/12/31 09:18:02;;;;;;;1.60;0.80;;;;;;;17.81;65.14;100232.91;5074044;28;20032;-71
2022/12/31 09:20:33;;;;;;;1.42;0.73;;;;;;;17.95;64.43;100229.03;5077064;28;20044;-72
2022/12/31 09:23:00;;;;;;;1.45;0.90;;;;;;;18.03;64.24;100231.44;5072114;28;20032;-69
2022/12/31 09:25:26;;;;;;;0.85;0.73;;;;;;;18.12;63.30;100227.41;5071758;28;20050;-72
2022/12/31 09:28:14;;;;;;;0.52;0.52;;;;;;;18.29;63.18;100240.31;5072134;28;20037;-70
2022/12/31 09:30:52;;;;;;;1.42;1.30;;;;;;;18.41;61.52;100233.13;5070322;28;20028;-70
2022/12/31 09:33:34;;;;;;;1.80;0.90;;;;;;;18.67;61.14;100238.25;5070364;28;20102;-71
2022/12/31 09:36:04;;;;;;;0.93;0.60;;;;;;;18.95;59.87;100245.75;5071108;28;20400;-69
2022/12/31 09:38:51;;;;;;;2.58;0.70;;;;;;;19.16;59.37;100247.13;5070772;28;20044;-71
2022/12/31 09:41:47;;;;;;;2.55;0.70;;;;;;;19.37;58.02;100253.91;5071008;28;20116;-69
2022/12/31 09:44:46;;;;;;;1.48;0.70;;;;;;;19.34;58.45;100262.47;5069228;28;20053;-70
2022/12/31 09:47:56;;;;;;;1.27;0.82;;;;;;;19.33;57.98;100262.69;5068945;28;20412;-70
2022/12/31 09:50:47;;;;;;;1.95;0.77;;;;;;;19.15;59.08;100261.69;5071044;28;20032;-71
2022/12/31 09:53:22;;;;;;;0.90;0.80;;;;;;;19.02;58.73;100269.97;5071024;28;20040;-70
2022/12/31 09:56:09;;;;;;;2.78;0.70;;;;;;;19.31;58.06;100256.72;5071329;28;20040;-69
2022/12/31 09:58:57;;;;;;;1.45;0.95;;;;;;;19.62;56.78;100258.31;5070959;28;20119;-69
2022/12/31 10:01:43;;;;;;;1.08;0.60;;;;;;;19.96;55.42;100262.16;5071154;28;20365;-69
2022/12/31 10:04:18;;;;;;;3.47;1.00;;;;;;;20.15;54.39;100258.28;5070934;28;20042;-69
2022/12/31 10:07:03;;;;;;;2.38;0.80;;;;;;;20.30;53.93;100255.91;5071081;28;20037;-69
2022/12/31 10:09:56;;;;;;;3.70;0.90;;;;;;;20.68;53.14;100254.56;5074462;28;20135;-69
2022/12/31 10:12:30;;;;;;;2.50;1.15;;;;;;;20.85;52.01;100249.22;5073231;28;20094;-60
2022/12/31 10:15:28;;;;;;;0.77;0.55;;;;;;;20.99;50.98;100258.69;5074643;28;20068;-69
2022/12/31 10:18:19;;;;;;;2.58;1.52;;;;;;;21.16;50.52;100247.91;5048029;28;20049;-69
2022/12/31 10:21:09;;;;;;;1.48;1.35;;;;;;;21.57;49.88;100251.38;5074349;28;20055;-69
2022/12/31 10:23:46;;;;;;;0.68;0.47;;;;;;;21.79;49.08;100243.34;5074257;28;20032;-67
2022/12/31 10:26:36;;;;;;;0.50;0.32;;;;;;;21.77;48.26;100240.03;5074201;28;20040;-68
2022/12/31 10:29:20;;;;;;;0.60;0.55;;;;;;;22.01;47.69;100238.78;5074032;28;20040;-69
2022/12/31 10:32:18;;;;;;;2.75;0.90;;;;;;;22.44;47.27;100232.66;5072813;28;20032;-68
2022/12/31 10:34:52;;;;;;;2.67;1.10;;;;;;;22.44;46.98;100231.84;5074261;28;20473;-69
2022/12/31 10:37:30;;;;;;;4.32;1.52;;;;;;;22.70;45.48;100241.13;5073729;28;20486;-70
2022/12/31 10:40:11;;;;;;;1.10;0.80;;;;;;;22.28;46.13;100243.53;5074040;28;20040;-69
2022/12/31 10:43:01;;;;;;;0.40;0.40;;;;;;;22.64;45.83;100248.38;5073930;28;20038;-68
2022/12/31 10:45:59;;;;;;;1.10;0.70;;;;;;;22.78;45.39;100248.81;5073841;28;20028;-68
2022/12/31 10:48:46;;;;;;;1.13;0.80;;;;;;;22.55;45.36;100236.31;5073674;28;20111;-68
2022/12/31 10:51:26;;;;;;;2.13;0.77;;;;;;;22.77;45.07;100230.88;5073734;28;20071;-69
2022/12/31 10:54:03;;;;;;;0.90;0.47;;;;;;;22.29;45.90;100237.88;5072311;28;20032;-68
2022/12/31 10:56:51;;;;;;;0.30;0.30;;;;;;;22.39;46.51;100235.31;5073749;28;20051;-69
2022/12/31 10:59:41;;;;;;;0.38;0.38;;;;;;;22.53;45.43;100235.75;5073343;28;20123;-68
2022/12/31 11:02:38;;;;;;;1.27;0.75;;;;;;;22.20;45.57;100242.09;5072576;28;20076;-68
2022/12/31 11:05:31;;;;;;;0.77;0.60;;;;;;;22.47;45.07;100240.28;5020174;28;20117;-62
2022/12/31 11:08:24;;;;;;;1.10;0.43;;;;;;;22.33;45.41;100246.34;5073633;28;20033;-69
2022/12/31 11:11:17;;;;;;;0.57;0.57;;;;;;;22.24;45.70;100220.72;5072371;28;20107;-70
2022/12/31 11:13:48;;;;;;;0.68;0.50;;;;;;;22.39;45.32;100227.16;5073564;28;20036;-69
2022/12/31 11:16:53;;;;;;;1.17;0.63;;;;;;;22.95;44.45;100233.31;5073223;28;20051;-70
2022/12/31 11:19:43;;;;;;;0.75;0.50;;;;;;;23.08;43.61;100231.22;5011029;28;20410;-69
2022/12/31 11:22:18;;;;;;;1.80;0.68;;;;;;;23.01;43.82;100226.00;5070665;28;20501;-67
2022/12/31 11:25:02;;;;;;;0.50;0.50;;;;;;;23.44;44.05;100227.78;5073325;28;20394;-69
2022/12/31 11:27:49;;;;;;;0.93;0.60;;;;;;;23.67;42.42;100223.94;5072954;28;20055;-68
2022/12/31 11:30:28;;;;;;;1.88;0.82;;;;;;;23.83;42.61;100228.41;5073176;28;20028;-69
2022/12/31 11:32:59;;;;;;;4.20;0.55;;;;;;;23.62;42.86;100228.53;5073257;28;20033;-68
2022/12/31 11:35:31;;;;;;;0.98;0.73;;;;;;;23.34;42.58;100224.97;5102039;22;20522;-69
2022/12/31 11:38:14;;;;;;;0.52;0.30;;;;;;;23.48;43.42;100215.34;5093253;28;20130;-69
2022/12/31 11:40:52;;;;;;;1.55;0.68;;;;;;;23.93;41.90;100210.50;5093684;28;20065;-69
2022/12/31 11:43:25;;;;;;;0.82;0.65;;;;;;;24.17;41.87;100202.78;5093464;28;20515;-70
2022/12/31 11:46:15;;;;;;;1.35;0.60;;;;;;;23.97;41.98;100206.19;5093394;28;20612;-69
2022/12/31 11:49:02;;;;;;;2.08;0.55;;;;;;;24.16;41.27;100198.41;5093483;28;20424;-69
2022/12/31 11:52:05;;;;;;;1.65;0.50;;;;;;;24.01;41.25;100188.28;5076919;28;20028;-69
2022/12/31 11:55:01;;;;;;;0.63;0.47;;;;;;;23.91;41.27;100202.63;5078562;28;20043;-68
2022/12/31 11:57:33;;;;;;;0.43;0.43;;;;;;;24.24;40.83;100192.47;5095269;28;20035;-68
2022/12/31 12:00:02;;;;;;;0.40;0.40;;;;;;;24.28;40.75;100196.31;5093224;28;20047;-68
2022/12/31 12:02:43;;;;;;;0.40;0.32;;;;;;;23.76;41.77;100197.09;5093068;28;20511;-68
2022/12/31 12:05:12;;;;;;;0.50;0.40;;;;;;;23.48;42.22;100185.44;5093118;28;20039;-68
2022/12/31 12:07:38;;;;;;;0.52;0.50;;;;;;;23.50;41.81;100180.56;5092851;28;20035;-69
2022/12/31 12:10:17;;;;;;;0.77;0.38;;;;;;;23.43;42.14;100182.66;5092756;28;20032;-68
2022/12/31 12:12:43;;;;;;;0.55;0.40;;;;;;;23.34;42.03;100178.78;5074633;28;20040;-67
2022/12/31 12:15:15;;;;;;;0.52;0.52;;;;;;;23.72;41.53;100185.91;5092778;28;20042;-67
2022/12/31 12:17:42;;;;;;;0.40;0.40;;;;;;;23.83;41.91;100175.91;5092470;28;20400;-66
2022/12/31 12:20:17;;;;;;;0.70;0.50;;;;;;;23.61;41.60;100186.06;5074446;28;20046;-67
2022/12/31 12:22:55;;;;;;;0.50;0.43;;;;;;;23.45;42.11;100196.00;5092785;28;20024;-66
2022/12/31 12:25:24;;;;;;;0.40;0.40;;;;;;;23.14;42.42;100189.47;5074488;28;20464;-65
2022/12/31 12:27:50;;;;;;;0.10;0.10;;;;;;;22.90;42.99;100194.41;5092497;28;20085;-65
2022/12/31 12:30:26;;;;;;;1.45;0.90;;;;;;;22.92;43.09;100192.25;5073996;28;20032;-65
2022/12/31 12:33:03;;;;;;;1.33;0.20;;;;;;;22.43;43.79;100203.88;5092493;28;20051;-66
2022/12/31 12:35:32;;;;;;;0.43;0.30;;;;;;;22.07;44.46;100197.13;5092826;28;20052;-66
2022/12/31 12:38:14;;;;;;;2.10;0.73;;;;;;;22.07;45.45;100185.44;5092290;28;20393;-66
2022/12/31 12:40:40;;;;;;;1.52;0.63;;;;;;;21.82;45.60;100185.91;5092634;28;20059;-64
2022/12/31 12:43:20;;;;;;;1.02;0.45;;;;;;;21.99;45.87;100180.47;5092420;28;20059;-64
2022/12/31 12:45:47;;;;;;;0.93;0.28;;;;;;;21.98;45.26;100181.53;5092186;28;20043;-63
2022/12/31 12:48:38;;;;;;;0.50;0.50;;;;;;;21.76;45.94;100176.06;5091942;28;20040;-65
2022/12/31 12:51:24;;;;;;;0.95;0.52;;;;;;;21.58;45.77;100177.97;5092067;28;20127;-65
2022/12/31 12:54:11;;;;;;;0.90;0.50;;;;;;;21.63;46.29;100177.22;5092207;28;20032;-64
2022/12/31 12:56:41;;;;;;;0.22;0.20;;;;;;;21.46;46.71;100173.72;5092078;28;20065;-64
2022/12/31 12:59:09;;;;;;;0.55;0.30;;;;;;;21.46;46.45;100169.09;5091805;28;20042;-64
2022/12/31 13:01:37;;;;;;;0.55;0.30;;;;;;;21.29;46.78;100165.56;5092091;28;20066;-64
2022/12/31 13:04:21;;;;;;;0.30;0.30;;;;;;;21.13;47.04;100159.88;5091939;28;20036;-64
2022/12/31 13:07:04;;;;;;;0.20;0.10;;;;;;;21.11;46.99;100147.63;5091951;28;20036;-64
2022/12/31 13:09:40;;;;;;;0.47;0.32;;;;;;;21.16;47.63;100157.72;5092113;28;20032;-64
2022/12/31 13:12:06;;;;;;;0.60;0.40;;;;;;;21.01;47.69;100161.00;5091975;28;20123;-64
2022/12/31 13:14:46;;;;;;;1.17;0.70;;;;;;;20.88;47.53;100159.41;5091919;28;20439;-65
2022/12/31 13:17:52;;;;;;;2.90;0.60;;;;;;;20.80;48.92;100147.09;5091811;28;20040;-66
2022/12/31 13:20:32;;;;;;;0.47;0.40;;;;;;;20.89;48.79;100152.13;5091994;28;20081;-66
2022/12/31 13:23:02;;;;;;;0.52;0.40;;;;;;;20.74;48.76;100150.78;5091926;28;20443;-67
2022/12/31 13:25:46;;;;;;;0.65;0.40;;;;;;;20.79;49.00;100148.13;5091862;28;20119;-66
2022/12/31 13:28:15;;;;;;;0.50;0.50;;;;;;;20.79;48.99;100147.31;5091765;28;20106;-66
2022/12/31 13:30:46;;;;;;;1.10;0.60;;;;;;;20.63;49.00;100153.53;5092073;28;20047;-65
2022/12/31 13:33:23;;;;;;;0.38;0.32;;;;;;;20.59;49.20;100134.22;5091155;28;20036;-65
2022/12/31 13:36:01;;;;;;;0.73;0.50;;;;;;;20.53;49.10;100148.72;5091801;28;20090;-66
2022/12/31 13:38:32;;;;;;;0.63;0.40;;;;;;;20.55;49.33;100146.63;5091383;28;20119;-65
2022/12/31 13:41:17;;;;;;;0.65;0.43;;;;;;;20.44;49.47;100142.84;5091710;28;20070;-66
2022/12/31 13:44:01;;;;;;;0.70;0.60;;;;;;;20.33;49.42;100135.59;5094415;28;20119;-65
2022/12/31 13:46:38;;;;;;;2.50;0.95;;;;;;;20.29;50.17;100143.38;5095615;28;20476;-66
2022/12/31 13:49:30;;;;;;;0.73;0.50;;;;;;;20.17;50.25;100139.03;5095589;28;20105;-66
2022/12/31 13:52:31;;;;;;;1.98;0.40;;;;;;;20.17;50.74;100139.03;5095587;28;20028;-65
2022/12/31 13:55:12;;;;;;;1.70;0.90;;;;;;;20.11;51.59;100146.22;5092217;28;20043;-66
2022/12/31 13:58:31;;;;;;;0.30;0.30;;;;;;;19.98;51.43;100154.59;5081798;28;20040;-66
2022/12/31 14:01:02;;;;;;;0.52;0.52;;;;;;;19.93;51.26;100149.88;5032865;28;20108;-66
2022/12/31 14:03:39;;;;;;;0.98;0.38;;;;;;;19.94;51.49;100153.41;5032792;28;20503;-66
2022/12/31 14:06:16;;;;;;;0.40;0.40;;;;;;;19.87;51.50;100150.00;5075401;28;20568;-67
2022/12/31 14:08:42;;;;;;;0.63;0.28;;;;;;;19.83;51.47;100146.16;5095120;28;20055;-66
2022/12/31 14:11:32;;;;;;;2.72;0.40;;;;;;;19.76;52.05;100139.00;5076925;28;20040;-66
2022/12/31 14:14:35;;;;;;;0.75;0.35;;;;;;;19.71;51.89;100144.28;5095614;28;20166;-66
2022/12/31 14:17:27;;;;;;;0.90;0.50;;;;;;;19.67;52.48;100144.97;5095085;28;20052;-66
2022/12/31 14:20:33;;;;;;;0.88;0.45;;;;;;;19.57;53.15;100148.25;5095152;28;20068;-66
2022/12/31 14:23:02;;;;;;;0.57;0.57;;;;;;;19.51;53.10;100141.06;5032295;28;20033;-65
2022/12/31 14:25:42;;;;;;;1.10;0.55;;;;;;;19.49;52.75;100144.00;5082322;28;20066;-66
2022/12/31 14:28:16;;;;;;;0.70;0.70;;;;;;;19.38;53.69;100152.94;5074287;28;20036;-65
2022/12/31 14:30:43;;;;;;;0.80;0.65;;;;;;;19.38;53.34;100166.44;5074350;28;20037;-65
2022/12/31 14:33:19;;;;;;;0.82;0.70;;;;;;;19.35;53.52;100168.75;5074503;28;20035;-65
2022/12/31 14:35:46;;;;;;;;;;;;;;;19.28;54.03;100179.66;5074583;28;20574;-66
2022/12/31 14:38:14;;;;;;;1.27;0.95;;;;;;;19.27;54.46;100175.31;5076562;28;20004;-65
2022/12/31 14:41:03;;;;;;;0.93;0.63;;;;;;;19.19;54.22;100178.38;5094962;28;20519;-65
2022/12/31 14:44:06;;;;;;;1.05;0.80;;;;;;;19.12;53.88;100161.44;5060637;28;20107;-65
2022/12/31 14:46:50;;;;;;;2.88;1.35;;;;;;;19.08;54.39;100166.47;5056128;28;20041;-66
2022/12/31 14:49:37;;;;;;;1.67;0.75;;;;;;;19.03;54.45;100160.13;5074065;28;20043;-66
2022/12/31 14:52:20;;;;;;;0.93;0.70;;;;;;;18.96;54.16;100166.44;5074204;28;20044;-65
2022/12/31 14:55:00;;;;;;;1.13;0.65;;;;;;;18.97;54.34;100165.41;5073521;28;20043;-66
2022/12/31 14:57:37;;;;;;;1.50;0.80;;;;;;;18.95;53.56;100163.97;5055682;28;20044;-66
2022/12/31 15:00:32;;;;;;;1.10;0.70;;;;;;;18.89;54.03;100163.00;5074067;28;20482;-65
2022/12/31 15:02:59;;;;;;;0.95;0.75;;;;;;;18.84;54.02;100162.03;5074114;28;20071;-66
2022/12/31 15:05:36;;;;;;;1.38;0.90;;;;;;;18.82;54.23;100150.66;5073963;28;20032;-66
2022/12/31 15:08:16;;;;;;;1.00;0.90;;;;;;;18.78;54.53;100160.25;5073756;28;20442;-65
2022/12/31 15:10:56;;;;;;;1.65;0.82;;;;;;;18.73;54.53;100154.75;5073827;28;20492;-65
2022/12/31 15:13:49;;;;;;;0.98;0.60;;;;;;;18.67;54.54;100151.91;5073818;28;20025;-66
2022/12/31 15:16:52;;;;;;;2.58;1.02;;;;;;;18.62;54.82;100159.81;5073627;28;20037;-65
2022/12/31 15:19:17;;;;;;;1.30;0.70;;;;;;;18.59;55.01;100160.28;5055644;28;20476;-65
2022/12/31 15:21:55;;;;;;;0.75;0.50;;;;;;;18.53;55.08;100155.81;5073876;28;20040;-64
2022/12/31 15:24:23;;;;;;;4.13;1.60;;;;;;;18.49;55.18;100154.59;5073649;28;20055;-65
2022/12/31 15:26:55;;;;;;;1.25;0.70;;;;;;;18.45;55.90;100156.09;5073759;28;20025;-64
2022/12/31 15:29:35;;;;;;;1.83;1.00;;;;;;;18.36;56.05;100155.59;5055575;28;20039;-65
2022/12/31 15:32:03;;;;;;;1.92;0.68;;;;;;;18.29;56.45;100165.63;5073443;28;20039;-64
2022/12/31 15:34:34;;;;;;;0.75;0.70;;;;;;;18.25;56.90;100163.63;5073348;28;20489;-65
2022/12/31 15:37:03;;;;;;;0.70;0.70;;;;;;;18.17;57.08;100162.88;5073132;28;20102;-63
2022/12/31 15:39:31;;;;;;;1.30;0.60;;;;;;;18.12;57.13;100161.88;5073258;28;20173;-65
2022/12/31 15:41:59;;;;;;;0.38;0.38;;;;;;;18.05;57.49;100164.66;5073326;28;20060;-65
2022/12/31 15:44:29;;;;;;;1.33;0.75;;;;;;;18.00;57.88;100164.53;5073236;28;20040;-65
2022/12/31 15:47:01;;;;;;;0.85;0.60;;;;;;;17.95;58.12;100175.16;5072915;28;20125;-65
2022/12/31 15:49:35;;;;;;;1.48;0.80;;;;;;;17.91;58.26;100171.25;5073030;28;20036;-63
2022/12/31 15:52:07;;;;;;;1.33;0.80;;;;;;;17.87;58.33;100168.19;5073084;28;20504;-64
2022/12/31 15:54:38;;;;;;;1.25;0.55;;;;;;;17.81;58.43;100179.84;5072997;28;20162;-64
2022/12/31 15:57:05;;;;;;;1.88;1.00;;;;;;;17.74;58.98;100172.88;5072719;28;20116;-63
2022/12/31 15:59:31;;;;;;;1.45;0.75;;;;;;;17.75;59.00;100171.81;5072739;28;20404;-64
2022/12/31 16:01:57;;;;;;;2.15;0.77;;;;;;;17.68;59.19;100179.13;5072843;28;20155;-64
2022/12/31 16:04:28;;;;;;;1.52;0.80;;;;;;;17.63;59.65;100182.47;5072789;28;20106;-65
2022/12/31 16:06:58;;;;;;;1.98;0.98;;;;;;;17.57;59.34;100189.56;5071873;28;20032;-64
2022/12/31 16:09:30;;;;;;;0.70;0.45;;;;;;;17.58;59.20;100190.38;5072567;28;20043;-64
2022/12/31 16:11:57;;;;;;;1.63;0.85;;;;;;;17.55;59.35;100194.34;5072511;28;20379;-65
2022/12/31 16:14:29;;;;;;;1.25;0.90;;;;;;;17.54;59.61;100190.00;5072616;28;20035;-64
2022/12/31 16:16:57;;;;;;;0.88;0.60;;;;;;;17.51;60.11;100206.59;5072663;28;20072;-64
2022/12/31 16:19:34;;;;;;;2.58;1.10;;;;;;;17.51;60.17;100209.28;5072477;28;20043;-65
2022/12/31 16:22:06;;;;;;;2.13;1.02;;;;;;;17.48;60.48;100209.75;5072636;28;20445;-64
2022/12/31 16:24:33;;;;;;;0.57;0.57;;;;;;;17.41;60.55;100208.97;5072477;28;20036;-61
2022/12/31 16:27:08;;;;;;;0.87;0.70;;;;;;;17.48;60.15;100208.91;5072232;28;20444;-65
2022/12/31 16:29:44;;;;;;;1.17;0.65;;;;;;;17.45;60.22;100215.53;5072185;28;20068;-64
2022/12/31 16:32:17;;;;;;;0.77;0.43;;;;;;;17.49;60.11;100215.94;5072260;28;20047;-64
2022/12/31 16:34:44;;;;;;;0.88;0.60;;;;;;;17.50;59.97;100220.28;5072134;28;20043;-65
2022/12/31 16:37:22;;;;;;;0.75;0.50;;;;;;;17.54;59.65;100230.41;5054151;28;20041;-64
2022/12/31 16:39:56;;;;;;;1.65;1.10;;;;;;;17.55;59.59;100223.16;5072181;28;20131;-65
2022/12/31 16:42:24;;;;;;;3.30;1.67;;;;;;;17.56;59.23;100222.91;5054267;28;20083;-64
2022/12/31 16:44:50;;;;;;;;;;;;;;;17.65;58.80;100226.16;5072466;28;20047;-64
2022/12/31 16:47:34;;;;;;;1.00;0.90;;;;;;;17.63;59.10;100221.00;5071749;28;20285;-62
2022/12/31 16:50:12;;;;;;;1.05;0.70;;;;;;;17.64;58.97;100228.03;5072034;28;20485;-64
2022/12/31 16:52:40;;;;;;;1.02;0.40;;;;;;;17.59;59.45;100221.66;5071962;28;20058;-65
2022/12/31 16:55:15;;;;;;;1.15;0.88;;;;;;;17.62;58.88;100229.31;5071964;28;20039;-64
2022/12/31 16:57:44;;;;;;;0.70;0.70;;;;;;;17.60;59.08;100232.22;5071667;28;20482;-68
2022/12/31 17:00:16;;;;;;;1.65;0.60;;;;;;;17.62;59.12;100232.00;5071802;28;20458;-68
2022/12/31 17:02:47;;;;;;;0.77;0.60;;;;;;;17.55;59.35;100233.91;5071870;28;20107;-67
2022/12/31 17:05:25;;;;;;;0.47;0.40;;;;;;;17.58;58.95;100222.69;5071721;28;20033;-68
2022/12/31 17:07:50;;;;;;;1.27;0.65;;;;;;;17.55;59.21;100223.97;5071666;28;20048;-68
2022/12/31 17:10:26;;;;;;;0.95;0.80;;;;;;;17.54;59.28;100226.84;5071666;28;20041;-68
2022/12/31 17:12:57;;;;;;;0.60;0.60;;;;;;;17.51;59.49;100217.34;5071642;28;20508;-67
2022/12/31 17:15:26;;;;;;;1.92;0.80;;;;;;;17.46;59.54;100227.97;5071611;28;20028;-67
2022/12/31 17:17:57;;;;;;;1.05;0.70;;;;;;;17.41;59.68;100219.72;5071155;28;20037;-67
2022/12/31 17:20:29;;;;;;;1.10;0.63;;;;;;;17.44;59.59;100221.97;5071653;28;20063;-66
2022/12/31 17:23:02;;;;;;;0.95;0.60;;;;;;;17.40;59.79;100217.22;5071478;28;20055;-67
2022/12/31 17:25:31;;;;;;;2.58;0.75;;;;;;;17.39;60.09;100223.66;5053403;28;20135;-67
2022/12/31 17:28:02;;;;;;;1.98;0.60;;;;;;;17.32;60.27;100221.84;5071104;28;20097;-68
2022/12/31 17:30:38;;;;;;;0.57;0.57;;;;;;;17.31;60.20;100217.50;5071393;28;20037;-68
2022/12/31 17:33:10;;;;;;;18.98;16.10;;;;;;;17.28;60.24;100222.53;5071471;28;20048;-68